createdAt,value
2019-03-17T00:01:12.145Z,99.90
2019-03-17T00:03:41.261Z,99.90
2019-03-17T00:06:11.275Z,99.90
2019-03-17T00:08:41.148Z,99.90
2019-03-17T00:11:11.024Z,99.90
2019-03-17T00:13:40.891Z,99.90
2019-03-17T00:16:11.192Z,99.90
2019-03-17T00:18:41.074Z,99.90
2019-03-17T00:21:10.967Z,99.90
2019-03-17T00:23:41.508Z,99.90
2019-03-17T00:26:11.387Z,99.90
2019-03-17T00:28:44.291Z,99.90
2019-03-17T00:31:23.220Z,99.90
2019-03-17T00:33:44.780Z,99.90
2019-03-17T00:36:14.678Z,99.90
2019-03-17T00:38:44.537Z,99.90
2019-03-17T00:41:14.575Z,99.90
2019-03-17T00:43:44.488Z,99.90
2019-03-17T00:46:14.470Z,99.90
2019-03-17T00:48:44.352Z,99.90
2019-03-17T00:51:15.019Z,99.90
2019-03-17T00:53:44.918Z,99.90
2019-03-17T00:56:14.827Z,99.90
2019-03-17T00:58:44.935Z,99.90
2019-03-17T01:01:15.110Z,99.90
2019-03-17T01:03:44.976Z,99.90
2019-03-17T01:06:14.859Z,99.90
2019-03-17T01:08:44.831Z,99.90
2019-03-17T01:11:14.814Z,99.90
2019-03-17T01:13:44.711Z,99.90
2019-03-17T01:16:14.707Z,99.90
2019-03-17T01:18:44.591Z,99.90
2019-03-17T01:21:14.475Z,99.90
2019-03-17T01:23:44.420Z,99.90
2019-03-17T01:26:14.309Z,99.90
2019-03-17T01:28:44.222Z,99.90
2019-03-17T01:31:15.054Z,99.90
2019-03-17T01:33:44.935Z,99.90
2019-03-17T01:36:15.271Z,99.90
2019-03-17T01:38:45.926Z,99.90
2019-03-17T01:41:15.844Z,99.90
2019-03-17T01:43:45.767Z,99.90
2019-03-17T01:46:15.647Z,99.90
2019-03-17T01:48:45.927Z,99.90
2019-03-17T01:51:15.805Z,99.90
2019-03-17T01:53:45.706Z,99.90
2019-03-17T01:56:15.637Z,99.90
2019-03-17T01:58:47.023Z,99.90
2019-03-17T02:01:16.935Z,99.90
2019-03-17T02:03:47.837Z,99.90
2019-03-17T02:06:17.699Z,99.90
2019-03-17T02:08:47.576Z,99.90
2019-03-17T02:11:17.743Z,99.90
2019-03-17T02:13:47.599Z,99.90
2019-03-17T02:16:17.503Z,99.90
2019-03-17T02:18:48.146Z,99.90
2019-03-17T02:21:18.018Z,99.90
2019-03-17T02:23:47.890Z,99.90
2019-03-17T02:26:17.771Z,99.90
2019-03-17T02:28:47.716Z,99.90
2019-03-17T02:31:17.587Z,99.90
2019-03-17T02:33:47.488Z,99.90
2019-03-17T02:36:17.448Z,99.90
2019-03-17T02:38:47.341Z,99.90
2019-03-17T02:41:17.230Z,99.90
2019-03-17T02:43:47.099Z,99.90
2019-03-17T02:46:19.441Z,99.90
2019-03-17T02:48:55.454Z,99.90
2019-03-17T02:51:25.389Z,99.90
2019-03-17T02:53:55.280Z,99.90
2019-03-17T02:56:25.305Z,99.90
2019-03-17T02:58:55.282Z,99.90
2019-03-17T03:01:25.299Z,99.90
2019-03-17T03:03:55.160Z,99.90
2019-03-17T03:06:25.058Z,99.90
2019-03-17T03:08:54.940Z,99.90
2019-03-17T03:11:24.825Z,99.90
2019-03-17T03:13:54.714Z,99.90
2019-03-17T03:16:25.300Z,99.90
2019-03-17T03:18:55.247Z,99.90
2019-03-17T03:21:25.132Z,99.90
2019-03-17T03:23:55.003Z,99.90
2019-03-17T03:26:24.863Z,99.90
2019-03-17T03:28:54.769Z,99.90
2019-03-17T03:31:24.738Z,99.90
2019-03-17T03:33:54.653Z,99.90
2019-03-17T03:36:24.918Z,99.90
2019-03-17T03:38:54.797Z,99.90
2019-03-17T03:41:24.788Z,99.90
2019-03-17T03:43:54.706Z,99.90
2019-03-17T03:46:24.798Z,99.90
2019-03-17T03:48:54.707Z,99.90
2019-03-17T03:51:24.583Z,99.90
2019-03-17T03:53:54.480Z,99.90
2019-03-17T03:56:24.407Z,99.90
2019-03-17T03:58:54.273Z,99.90
2019-03-17T04:01:24.224Z,99.90
2019-03-17T04:03:54.164Z,99.90
2019-03-17T04:06:26.707Z,99.90
2019-03-17T04:08:55.613Z,99.90
2019-03-17T04:11:25.563Z,99.90
2019-03-17T04:13:55.497Z,99.90
2019-03-17T04:16:25.368Z,99.90
2019-03-17T04:18:55.268Z,99.90
2019-03-17T04:21:25.111Z,99.90
2019-03-17T04:23:55.228Z,99.90
2019-03-17T04:26:25.735Z,99.90
2019-03-17T04:28:55.697Z,99.90
2019-03-17T04:31:26.365Z,99.90
2019-03-17T04:33:56.244Z,99.90
2019-03-17T04:36:39.066Z,99.90
2019-03-17T04:38:58.122Z,99.90
2019-03-17T04:41:29.003Z,99.90
2019-03-17T04:43:58.908Z,99.90
2019-03-17T04:46:28.785Z,99.90
2019-03-17T04:48:58.719Z,99.90
2019-03-17T04:51:29.231Z,99.90
2019-03-17T04:53:59.408Z,99.90
2019-03-17T04:56:29.298Z,99.90
2019-03-17T04:58:59.261Z,99.90
2019-03-17T05:01:29.141Z,99.90
2019-03-17T05:03:59.015Z,99.90
2019-03-17T05:06:29.318Z,99.90
2019-03-17T05:08:59.427Z,99.90
2019-03-17T05:11:29.275Z,99.90
2019-03-17T05:13:59.236Z,99.90
2019-03-17T05:16:29.134Z,99.90
2019-03-17T05:18:59.213Z,99.90
2019-03-17T05:21:29.071Z,99.90
2019-03-17T05:23:58.940Z,99.90
2019-03-17T05:26:28.819Z,99.90
2019-03-17T05:28:58.732Z,99.90
2019-03-17T05:31:28.612Z,99.90
2019-03-17T05:33:58.497Z,99.90
2019-03-17T05:36:28.446Z,99.90
2019-03-17T05:38:58.326Z,99.90
2019-03-17T05:41:28.627Z,99.90
2019-03-17T05:43:58.495Z,99.90
2019-03-17T05:46:28.519Z,99.90
2019-03-17T05:48:58.432Z,99.90
2019-03-17T05:51:28.343Z,99.90
2019-03-17T05:53:58.209Z,99.90
2019-03-17T05:56:28.140Z,99.90
2019-03-17T05:58:58.007Z,99.90
2019-03-17T06:01:27.975Z,99.90
2019-03-17T06:03:58.640Z,99.90
2019-03-17T06:06:28.503Z,99.90
2019-03-17T06:08:58.773Z,99.90
2019-03-17T06:11:28.654Z,99.90
2019-03-17T06:13:58.570Z,99.90
2019-03-17T06:16:28.434Z,99.90
2019-03-17T06:18:58.353Z,99.90
2019-03-17T06:21:28.279Z,99.90
2019-03-17T06:23:58.126Z,99.90
2019-03-17T06:26:28.635Z,99.90
2019-03-17T06:28:58.599Z,99.90
2019-03-17T06:31:28.484Z,99.90
2019-03-17T06:33:58.585Z,99.90
2019-03-17T06:36:28.871Z,99.90
2019-03-17T06:38:58.742Z,99.90
2019-03-17T06:41:28.602Z,99.90
2019-03-17T06:43:58.503Z,99.90
2019-03-17T06:46:28.464Z,99.90
2019-03-17T06:48:58.333Z,99.90
2019-03-17T06:51:28.268Z,99.90
2019-03-17T06:53:58.432Z,99.90
2019-03-17T06:56:29.170Z,99.90
2019-03-17T06:58:59.164Z,99.90
2019-03-17T07:01:32.184Z,99.90
2019-03-17T07:04:02.039Z,99.90
2019-03-17T07:06:31.907Z,99.90
2019-03-17T07:09:01.866Z,99.90
2019-03-17T07:11:31.808Z,99.90
2019-03-17T07:14:01.781Z,99.90
2019-03-17T07:16:31.906Z,99.90
2019-03-17T07:19:01.848Z,99.90
2019-03-17T07:21:31.819Z,99.90
2019-03-17T07:24:02.445Z,99.90
2019-03-17T07:26:33.826Z,99.90
2019-03-17T07:29:03.820Z,99.90
2019-03-17T07:31:33.867Z,99.90
2019-03-17T07:34:03.911Z,99.90
2019-03-17T07:36:33.864Z,99.90
2019-03-17T07:39:11.748Z,99.90
2019-03-17T07:41:36.088Z,99.90
2019-03-17T07:44:06.119Z,99.90
2019-03-17T07:46:36.128Z,99.90
2019-03-17T07:49:06.712Z,99.90
2019-03-17T07:51:36.696Z,99.90
2019-03-17T07:54:07.124Z,99.90
2019-03-17T07:56:37.111Z,99.90
2019-03-17T07:59:07.009Z,99.90
2019-03-17T08:01:36.985Z,99.90
2019-03-17T08:04:07.024Z,99.90
2019-03-17T08:06:37.265Z,99.90
2019-03-17T08:09:09.064Z,99.90
2019-03-17T08:11:39.454Z,99.90
2019-03-17T08:14:09.843Z,99.90
2019-03-17T08:16:39.856Z,99.90
2019-03-17T08:19:09.854Z,99.90
2019-03-17T08:21:43.072Z,99.90
2019-03-17T08:24:11.655Z,99.90
2019-03-17T08:26:41.626Z,99.90
2019-03-17T08:29:11.639Z,99.90
2019-03-17T08:31:41.528Z,99.90
2019-03-17T08:34:11.692Z,99.90
2019-03-17T08:36:42.428Z,99.90
2019-03-17T08:39:12.685Z,99.90
2019-03-17T08:41:42.680Z,99.90
2019-03-17T08:44:12.603Z,99.90
2019-03-17T08:46:42.558Z,99.90
2019-03-17T08:49:12.481Z,99.90
2019-03-17T08:51:42.384Z,99.90
2019-03-17T08:54:13.208Z,99.90
2019-03-17T08:56:43.259Z,99.90
2019-03-17T08:59:13.400Z,99.90
2019-03-17T09:01:43.343Z,99.90
2019-03-17T09:04:13.330Z,99.90
2019-03-17T09:06:43.527Z,99.90
2019-03-17T09:09:13.454Z,99.90
2019-03-17T09:11:44.007Z,99.90
2019-03-17T09:14:14.836Z,99.90
2019-03-17T09:16:45.627Z,99.90
2019-03-17T09:19:15.560Z,99.90
2019-03-17T09:21:45.524Z,99.90
2019-03-17T09:24:17.335Z,99.90
2019-03-17T09:26:47.332Z,99.90
2019-03-17T09:29:17.337Z,99.90
2019-03-17T09:31:47.248Z,99.90
2019-03-17T09:34:17.238Z,99.90
2019-03-17T09:36:47.286Z,99.90
2019-03-17T09:39:17.319Z,99.90
2019-03-17T09:41:47.198Z,99.90
2019-03-17T09:44:17.172Z,99.90
2019-03-17T09:46:47.130Z,99.90
2019-03-17T09:49:17.051Z,99.90
2019-03-17T09:51:47.016Z,99.90
2019-03-17T09:54:16.978Z,99.90
2019-03-17T09:56:46.943Z,99.90
2019-03-17T09:59:16.915Z,99.90
2019-03-17T10:01:46.800Z,99.90
2019-03-17T10:04:16.687Z,99.90
2019-03-17T10:06:46.700Z,99.90
2019-03-17T10:09:16.687Z,99.90
2019-03-17T10:11:46.663Z,99.90
2019-03-17T10:14:16.610Z,99.90
2019-03-17T10:16:46.600Z,99.90
2019-03-17T10:19:17.270Z,99.90
2019-03-17T10:21:47.220Z,99.90
2019-03-17T10:24:17.135Z,99.90
2019-03-17T10:26:47.171Z,99.90
2019-03-17T10:29:17.144Z,99.90
2019-03-17T10:31:47.747Z,99.90
2019-03-17T10:34:17.968Z,99.90
2019-03-17T10:36:47.875Z,99.90
2019-03-17T10:39:17.840Z,99.90
2019-03-17T10:41:48.028Z,99.90
2019-03-17T10:44:18.043Z,99.90
2019-03-17T10:46:48.545Z,99.90
2019-03-17T10:49:18.516Z,99.90
2019-03-17T10:51:48.549Z,99.90
2019-03-17T10:54:18.830Z,99.90
2019-03-17T10:56:48.918Z,99.90
2019-03-17T10:59:18.864Z,99.90
2019-03-17T11:01:48.907Z,99.90
2019-03-17T11:04:19.151Z,99.90
2019-03-17T11:06:49.043Z,99.90
2019-03-17T11:09:25.254Z,99.90
2019-03-17T11:11:50.620Z,99.90
2019-03-17T11:14:20.585Z,99.90
2019-03-17T11:16:50.519Z,99.90
2019-03-17T11:19:20.536Z,99.90
2019-03-17T11:21:50.744Z,99.90
2019-03-17T11:24:20.667Z,99.90
2019-03-17T11:26:50.628Z,99.90
2019-03-17T11:29:20.618Z,99.90
2019-03-17T11:31:50.519Z,99.90
2019-03-17T11:34:20.439Z,99.90
2019-03-17T11:36:51.488Z,99.90
2019-03-17T11:39:21.566Z,99.90
2019-03-17T11:41:51.555Z,99.90
2019-03-17T11:44:22.031Z,96.40
2019-03-17T11:46:52.009Z,96.80
2019-03-17T11:49:22.373Z,90.60
2019-03-17T11:51:52.328Z,91.60
2019-03-17T11:54:22.243Z,85.50
2019-03-17T11:56:52.187Z,85.70
2019-03-17T11:59:22.101Z,85.50
2019-03-17T12:01:52.038Z,85.60
2019-03-17T12:04:21.966Z,82.40
2019-03-17T12:06:51.912Z,82.10
2019-03-17T12:09:28.929Z,83.20
2019-03-17T12:11:53.562Z,83.60
2019-03-17T12:14:23.485Z,84.00
2019-03-17T12:16:53.448Z,81.60
2019-03-17T12:19:23.375Z,80.50
2019-03-17T12:21:53.326Z,83.50
2019-03-17T12:24:23.260Z,77.90
2019-03-17T12:26:53.243Z,82.00
2019-03-17T12:29:24.016Z,77.10
2019-03-17T12:31:54.063Z,74.40
2019-03-17T12:34:28.243Z,72.60
2019-03-17T12:36:55.576Z,72.80
2019-03-17T12:39:25.518Z,73.80
2019-03-17T12:41:55.410Z,74.30
2019-03-17T12:44:25.324Z,72.60
2019-03-17T12:46:56.001Z,73.50
2019-03-17T12:49:26.265Z,72.80
2019-03-17T12:51:56.811Z,72.20
2019-03-17T12:54:26.721Z,71.10
2019-03-17T12:56:56.875Z,68.00
2019-03-17T12:59:26.817Z,68.30
2019-03-17T13:01:57.700Z,71.20
2019-03-17T13:04:27.703Z,70.60
2019-03-17T13:06:57.723Z,69.80
2019-03-17T13:09:27.611Z,67.00
2019-03-17T13:11:57.502Z,65.40
2019-03-17T13:14:28.556Z,67.00
2019-03-17T13:16:58.724Z,68.40
2019-03-17T13:19:28.727Z,70.10
2019-03-17T13:21:59.032Z,74.20
2019-03-17T13:24:29.353Z,72.90
2019-03-17T13:26:59.710Z,74.30
2019-03-17T13:29:29.850Z,70.30
2019-03-17T13:32:00.144Z,72.20
2019-03-17T13:34:31.300Z,72.50
2019-03-17T13:37:01.541Z,72.30
2019-03-17T13:39:31.699Z,71.70
2019-03-17T13:42:01.622Z,70.70
2019-03-17T13:44:31.751Z,71.70
2019-03-17T13:47:01.762Z,69.70
2019-03-17T13:49:32.531Z,73.70
2019-03-17T13:52:02.537Z,73.40
2019-03-17T13:54:32.516Z,71.80
2019-03-17T13:57:02.447Z,67.80
2019-03-17T13:59:33.013Z,64.00
2019-03-17T14:02:03.962Z,67.90
2019-03-17T14:04:34.747Z,70.60
2019-03-17T14:07:05.541Z,68.10
2019-03-17T14:09:35.855Z,68.70
2019-03-17T14:12:06.830Z,67.50
2019-03-17T14:14:37.213Z,70.20
2019-03-17T14:17:07.392Z,71.50
2019-03-17T14:19:37.463Z,74.40
2019-03-17T14:22:07.497Z,76.80
2019-03-17T14:24:37.586Z,78.00
2019-03-17T14:27:07.640Z,77.50
2019-03-17T14:29:37.555Z,73.10
2019-03-17T14:32:07.639Z,75.50
2019-03-17T14:34:37.537Z,77.60
2019-03-17T14:37:07.447Z,79.90
2019-03-17T14:39:37.318Z,81.80
2019-03-17T14:42:07.281Z,82.00
2019-03-17T14:44:37.161Z,85.10
2019-03-17T14:47:07.924Z,83.20
2019-03-17T14:49:39.274Z,81.30
2019-03-17T14:52:09.230Z,85.10
2019-03-17T14:54:39.207Z,86.40
2019-03-17T14:57:09.513Z,85.10
2019-03-17T14:59:39.412Z,86.20
2019-03-17T15:02:09.494Z,93.70
2019-03-17T15:04:41.094Z,99.10
2019-03-17T15:07:11.290Z,99.90
2019-03-17T15:09:41.334Z,99.90
2019-03-17T15:12:11.231Z,99.90
2019-03-17T15:14:41.813Z,99.90
2019-03-17T15:17:12.104Z,99.90
2019-03-17T15:19:42.050Z,99.90
2019-03-17T15:22:12.726Z,99.90
2019-03-17T15:24:43.618Z,99.90
2019-03-17T15:27:14.480Z,99.90
2019-03-17T15:29:45.599Z,99.90
2019-03-17T15:32:15.676Z,99.90
2019-03-17T15:34:45.629Z,99.90
2019-03-17T15:37:15.514Z,99.90
2019-03-17T15:39:45.503Z,99.90
2019-03-17T15:42:15.414Z,99.90
2019-03-17T15:44:45.353Z,99.90
2019-03-17T15:47:15.282Z,99.90
2019-03-17T15:49:45.334Z,99.90
2019-03-17T15:52:15.224Z,99.90
2019-03-17T15:54:45.599Z,99.90
2019-03-17T15:57:15.474Z,99.90
2019-03-17T15:59:48.422Z,99.90
2019-03-17T16:02:17.084Z,99.90
2019-03-17T16:04:47.012Z,99.90
2019-03-17T16:07:17.087Z,99.90
2019-03-17T16:09:47.166Z,99.90
2019-03-17T16:12:17.113Z,99.90
2019-03-17T16:14:47.120Z,99.90
2019-03-17T16:17:17.452Z,99.90
2019-03-17T16:19:47.372Z,99.90
2019-03-17T16:22:18.175Z,99.90
2019-03-17T16:24:48.067Z,99.90
2019-03-17T16:27:18.098Z,99.90
2019-03-17T16:29:48.642Z,99.90
2019-03-17T16:32:20.507Z,99.90
2019-03-17T16:34:50.520Z,99.90
2019-03-17T16:37:20.493Z,99.90
2019-03-17T16:39:50.509Z,99.90
2019-03-17T16:42:20.446Z,99.90
2019-03-17T16:44:51.161Z,99.90
2019-03-17T16:47:21.079Z,99.90
2019-03-17T16:49:50.952Z,99.90
2019-03-17T16:52:20.971Z,99.90
2019-03-17T16:54:52.899Z,99.90
2019-03-17T16:57:22.830Z,99.90
2019-03-17T16:59:52.763Z,99.90
2019-03-17T17:02:23.039Z,99.90
2019-03-17T17:04:53.051Z,99.90
2019-03-17T17:07:23.743Z,99.90
2019-03-17T17:09:53.665Z,99.90
2019-03-17T17:12:23.567Z,99.90
2019-03-17T17:14:54.137Z,99.90
2019-03-17T17:17:24.091Z,99.90
2019-03-17T17:19:54.130Z,99.90
2019-03-17T17:22:26.672Z,99.90
2019-03-17T17:24:56.777Z,99.90
2019-03-17T17:27:26.862Z,99.90
2019-03-17T17:29:56.835Z,99.90
2019-03-17T17:32:27.083Z,99.90
2019-03-17T17:34:57.184Z,99.90
2019-03-17T17:37:27.670Z,99.90
2019-03-17T17:39:57.766Z,99.90
2019-03-17T17:42:29.429Z,99.90
2019-03-17T17:44:59.840Z,99.90
2019-03-17T17:47:29.889Z,99.90
2019-03-17T17:49:59.841Z,99.90
2019-03-17T17:52:31.039Z,99.90
2019-03-17T17:55:00.920Z,99.90
2019-03-17T17:57:30.811Z,99.90
2019-03-17T18:00:00.868Z,99.90
2019-03-17T18:02:31.411Z,99.90
2019-03-17T18:05:02.689Z,99.90
2019-03-17T18:07:32.785Z,99.90
2019-03-17T18:10:02.939Z,99.90
2019-03-17T18:12:33.272Z,99.90
2019-03-17T18:15:03.313Z,99.90
2019-03-17T18:17:33.276Z,99.90
2019-03-17T18:20:03.323Z,99.90
2019-03-17T18:22:41.454Z,99.90
2019-03-17T18:25:14.029Z,99.90
2019-03-17T18:27:44.459Z,99.90
2019-03-17T18:30:16.029Z,99.90
2019-03-17T18:32:46.364Z,99.90
2019-03-17T18:35:16.879Z,99.90
2019-03-17T18:37:50.946Z,99.90
2019-03-17T18:40:20.755Z,99.90
2019-03-17T18:42:50.988Z,99.90
2019-03-17T18:45:21.370Z,99.90
2019-03-17T18:47:52.057Z,99.90
2019-03-17T18:50:22.301Z,99.90
2019-03-17T18:52:52.329Z,99.90
2019-03-17T18:55:22.795Z,99.90
2019-03-17T18:57:52.859Z,99.90
2019-03-17T19:00:22.869Z,99.90
2019-03-17T19:02:52.855Z,99.90
2019-03-17T19:05:23.174Z,99.90
2019-03-17T19:07:53.126Z,99.90
2019-03-17T19:10:23.110Z,99.90
2019-03-17T19:12:53.015Z,99.90
2019-03-17T19:15:23.205Z,99.90
2019-03-17T19:17:53.194Z,99.90
2019-03-17T19:20:23.243Z,99.90
2019-03-17T19:22:53.392Z,99.90
2019-03-17T19:25:23.299Z,99.90
2019-03-17T19:27:54.391Z,99.90
2019-03-17T19:30:24.396Z,99.90
2019-03-17T19:32:54.282Z,99.90
2019-03-17T19:35:24.291Z,99.90
2019-03-17T19:37:55.332Z,99.90
2019-03-17T19:40:25.225Z,99.90
2019-03-17T19:42:59.374Z,99.90
2019-03-17T19:45:26.640Z,99.90
2019-03-17T19:47:56.588Z,99.90
2019-03-17T19:50:26.522Z,99.90
2019-03-17T19:52:56.427Z,99.90
2019-03-17T19:55:27.417Z,99.90
2019-03-17T19:57:57.361Z,99.90
2019-03-17T20:00:27.309Z,99.90
2019-03-17T20:02:57.277Z,99.90
2019-03-17T20:05:27.176Z,99.90
2019-03-17T20:07:57.136Z,99.90
2019-03-17T20:10:27.191Z,99.90
2019-03-17T20:13:01.680Z,99.90
2019-03-17T20:15:28.811Z,99.90
2019-03-17T20:17:58.742Z,99.90
2019-03-17T20:20:28.631Z,99.90
2019-03-17T20:22:59.533Z,99.90
2019-03-17T20:25:29.531Z,99.90
2019-03-17T20:27:59.520Z,99.90
2019-03-17T20:30:29.507Z,99.90
2019-03-17T20:32:59.423Z,99.90
2019-03-17T20:35:29.297Z,99.90
2019-03-17T20:37:59.314Z,99.90
2019-03-17T20:40:29.125Z,99.90
2019-03-17T20:42:59.039Z,99.90
2019-03-17T20:45:28.885Z,99.90
2019-03-17T20:47:58.853Z,99.90
2019-03-17T20:50:29.257Z,99.90
2019-03-17T20:52:59.133Z,99.90
2019-03-17T20:55:29.091Z,99.90
2019-03-17T20:57:59.091Z,99.90
2019-03-17T21:00:29.000Z,99.90
2019-03-17T21:02:58.875Z,99.90
2019-03-17T21:05:28.912Z,99.90
2019-03-17T21:07:58.843Z,99.90
2019-03-17T21:10:28.738Z,99.90
2019-03-17T21:12:58.676Z,99.90
2019-03-17T21:15:28.694Z,99.90
2019-03-17T21:17:58.782Z,99.90
2019-03-17T21:20:28.941Z,99.90
2019-03-17T21:22:58.832Z,99.90
2019-03-17T21:25:28.844Z,99.90
2019-03-17T21:27:58.902Z,99.90
2019-03-17T21:30:28.747Z,99.90
2019-03-17T21:32:58.710Z,99.90
2019-03-17T21:35:28.575Z,99.90
2019-03-17T21:37:58.520Z,99.90
2019-03-17T21:40:28.359Z,99.90
2019-03-17T21:42:58.215Z,99.90
2019-03-17T21:45:28.057Z,99.90
2019-03-17T21:47:57.963Z,99.90
2019-03-17T21:50:27.808Z,99.90
2019-03-17T21:52:58.804Z,99.90
2019-03-17T21:55:30.295Z,99.90
2019-03-17T21:58:07.781Z,99.90
2019-03-17T22:00:32.132Z,99.90
2019-03-17T22:03:02.348Z,99.90
2019-03-17T22:05:32.200Z,99.90
2019-03-17T22:08:02.122Z,99.90
2019-03-17T22:10:31.961Z,99.90
2019-03-17T22:13:01.803Z,99.90
2019-03-17T22:15:31.686Z,99.90
2019-03-17T22:18:01.556Z,99.90
2019-03-17T22:20:31.413Z,99.90
2019-03-17T22:23:01.715Z,99.90
2019-03-17T22:25:31.583Z,99.90
2019-03-17T22:28:08.329Z,99.90
2019-03-17T22:30:33.155Z,99.90
2019-03-17T22:33:02.995Z,99.90
2019-03-17T22:35:32.845Z,99.90
2019-03-17T22:38:02.716Z,99.90
2019-03-17T22:40:32.551Z,99.90
2019-03-17T22:43:02.385Z,99.90
2019-03-17T22:45:32.211Z,99.90
2019-03-17T22:48:02.179Z,99.90
2019-03-17T22:50:32.026Z,99.90
2019-03-17T22:53:01.872Z,99.90
2019-03-17T22:55:31.756Z,99.90
2019-03-17T22:58:01.623Z,99.90
2019-03-17T23:00:45.212Z,99.90
2019-03-17T23:03:15.158Z,99.90
2019-03-17T23:05:44.987Z,99.90
2019-03-17T23:08:14.906Z,99.90
2019-03-17T23:10:44.760Z,99.90
2019-03-17T23:13:14.580Z,99.90
2019-03-17T23:15:44.438Z,99.90
2019-03-17T23:18:14.402Z,99.90
2019-03-17T23:20:44.356Z,99.90
2019-03-17T23:23:14.289Z,99.90
2019-03-17T23:25:44.178Z,99.90
2019-03-17T23:28:14.129Z,99.90
2019-03-17T23:30:43.989Z,99.90
2019-03-17T23:33:14.008Z,99.90
2019-03-17T23:35:43.868Z,99.90
2019-03-17T23:38:13.787Z,99.90
2019-03-17T23:40:43.636Z,99.90
2019-03-17T23:43:13.488Z,99.90
2019-03-17T23:45:43.328Z,99.90
2019-03-17T23:48:13.587Z,99.90
2019-03-17T23:50:43.427Z,99.90
2019-03-17T23:53:13.263Z,99.90
2019-03-17T23:55:43.260Z,99.90
2019-03-17T23:58:13.199Z,99.90
